Share

Taasinge, Denmark

5:05 AM CEST on April 25, 2014 (GMT +0200)
Taasinge (ITSINGES2) Elev 52 ft | 55.04 °N, 10.62 °E | Change Station

Current weather conditions updated 14 seconds ago

Scattered Clouds
Scattered Clouds
45.9 °F
Feels Like 41 °F
N
10.4
Wind Variable Wind from East
Gusts 10.4 mph
Sunrise 5:51 AM
Sunset 8:41 PM
Moon Waning Crescent

Today is forecast to be Warmer than yesterday.

Pressure 30.09 in
Visibility 6.2 miles
Clouds Scattered Clouds 1500 ft
Windchill 41 °F
Dew Point 43 °F
Humidity 89%
Rainfall 0.00 in
Snow Depth Not available.
UV 0 out of 16
Pollen Not available.
Air Quality Not available.
Flu Activity Not available.
METAR ETGG 250220Z 07006KT 9999 SCT015 07/05 Q1019 BLU+

More Conditions Fewer Conditions

Pressure 30.09 in
Visibility 6.2 miles
Clouds Scattered Clouds 1500 ft
Windchill 41 °F
Dew Point 43 °F
Humidity 89%
Rainfall 0.00 in
Snow Depth Not available.
UV 0 out of 16
Pollen Not available.
Air Quality Not available.
Flu Activity Not available.
METAR ETGG 250220Z 07006KT 9999 SCT015 07/05 Q1019 BLU+

More Conditions Fewer Conditions

10-Day Weather Forecast

Almanac

Astronomy

Apr. 25, 2014 Rise Set
Actual Time 5:51 AM CEST 8:41 PM CEST
Civil Twilight 5:10 AM CEST 9:22 PM CEST
Nautical Twilight 4:16 AM CEST 10:17 PM CEST
Astronomical Twilight 3:06 AM CEST 11:29 PM CEST
Moon 4:13 AM CEST 4:06 PM CEST
Length of Visible Light 16h 12m
Length of Day
14h 49m
Tomorrow will be 4m 13s longer.
Waning Crescent, 20% of the Moon is Illuminated
Apr 24
Waning Crescent
Apr 29
New
May 6
First Quarter
May 14
Full
May 21
Last Quarter

Yesterday's Extremes

Country Highs Country Lows

Community

  • Critter
    Critter
  • Jone Runs Falls
    Jone Runs Falls
  • Easter in Shenandoah National Park
    Easter in Shenandoah National Park
  • Sunset at Apalachicola Bay, Florida
    Sunset at Apalachicola Bay, Florida
  • Clouds mov'n in
    Clouds mov'n in

WunderPhotos

Upload Photos

1,704,822 photos uploaded!

WunderBlogs® & News

Nearby

Snow Depth

Not available.

Coastal Water Temperatures

Place Temperature
No Stations Reporting

Earthquake Activity

City Distance Mag. Time & Date
No recent earthquake activity has been reported nearby.
Minimum magnitude displayed is 2.5.

Nearby Weather Stations

Station Location Temp. Windchill Dew Point Humidity Wind Precip. Elev Updated Type
Taasinge, Svendborg 45.9 °F 41 °F 43 °F 89% East  at  10.4 mph 0.00 in / hr 52 ft 5:05 AM CEST Rapid Fire
Svendborg, Svendborg 44.6 °F 41 °F 41 °F 87% NNE  at  6.0 mph 0.00 in / hr 100 ft 5:05 AM CEST Normal
Egeskov, Volstrup 42.8 °F 43 °F 38 °F 83% NE  at  0.0 mph 0.00 in / hr 223 ft 5:05 AM CEST Normal
Orbaek - Fyn, 43.0 °F 43 °F 38 °F 83% East  at  2.0 mph 0.00 in / hr 196 ft 5:02 AM CEST Normal

Show More Stations Show Fewer Stations

What do you think?

We're not finished. Please let us know what you like, what you don't like, and what you are still missing.